Mesa Verde National Park, CO

3:48 PM MDT on October 21, 2014 (GMT -0600)
Kelly Place B&B, McElmo Canyon | Change Station
CLOSE
Current Station
Personal Weather Station
Location: Cortez, CO
Elevation: 5522 ft
Nearby Weather Stations

Elev 5522 ft 37.34 °N, 108.79 °W | Updated 6 minutes ago

Partly Cloudy
Partly Cloudy
69.4 °F
Feels Like 69.4 °F
N
0.0
Wind Variable Wind from ENE
Gusts 6.7 mph

Today
High -- | Low -- °F
--% Chance of Precip.
Yesterday
High -- | Low -- °F
Precip. -- in
7:28 AM 6:29 PM
Waning Crescent, 4% visible
Pressure 29.88 in
Visibility 10.0 miles
Clouds Clear
Dew Point 43 °F
Humidity 38%
Rainfall 0.02 in
Snow Depth Not available.
UV 4 out of 12
Pollen 2.40 out of 12
Air Quality Not available.
Flu Activity Sporadic
METAR KCEZ 212053Z AUTO VRB04KT 10SM CLR 19/05 A3007 RMK AO2 SLP119 60000 T01940050 58025

More Conditions Fewer Conditions

Pressure 29.88 in
Visibility 10.0 miles
Clouds Clear
Dew Point 43 °F
Humidity 38%
Rainfall 0.02 in
Snow Depth Not available.
UV 4 out of 12
Pollen 2.40 out of 12
Air Quality Not available.
Flu Activity Sporadic
METAR KCEZ 212053Z AUTO VRB04KT 10SM CLR 19/05 A3007 RMK AO2 SLP119 60000 T01940050 58025

More Conditions Fewer Conditions

10-Day Weather Forecast

Almanac

Astronomy

Oct. 21, 2014 Rise Set
Actual Time 7:28 AM MDT 6:29 PM MDT
Civil Twilight 7:02 AM MDT 6:56 PM MDT
Nautical Twilight 6:31 AM MDT 7:26 PM MDT
Astronomical Twilight 6:01 AM MDT 7:56 PM MDT
Moon 5:18 AM MDT 5:23 PM MDT
Length of Visible Light 11h 54m
Length of Day
11h 01m
Tomorrow will be 2m 15s shorter.
Waning Crescent, 4% of the Moon is Illuminated
Today
Waning Crescent
Oct 23
New
Oct 30
First Quarter
Nov 6
Full
Nov 14
Last Quarter

Today's Extremes

State Highs State Lows

Community

WunderPhotos

Upload Photos

1,763,785 photos uploaded!

Nearby

Snow Depth

Station Depth Elevation
Columbus Basin 1 in 10785 ft
Scotch Creek 0 in 9100 ft
Lone Cone 0 in 9600 ft
El Diente Peak 1 in 10200 ft
Cascade 0 in 8880 ft

Earthquake Activity

City Distance Mag. Time & Date
No recent earthquake activity has been reported nearby.
Minimum magnitude displayed is 2.5.

Coastal Water Temperatures

Place Temperature
No Stations Reporting

Nearby Weather Stations